Airport View

Enter ICAO identifier to see the current METAR for that AWOS.

KFNL for example

KSFF 241653Z 22014G21KT 10SM BKN034 BKN100 16/06 A3014

24 Jul 2014 17:42

Phone: 509-624-4406

Other Area AWOS: KGEG - KSKA - KDEW - KCOE

TAF KSFF 241124Z 2412/2512 20010KT P6SM BKN060 FM241500 21015G22KT P6SM SCT030 BKN060 BKN150 FM250300 25005KT P6SM SCT060